Time;durP1;ratioP1;P1;durP2;ratioP2;P2;SDS_P1;SDS_P2;PMS_P1;PMS_P2;Temp;Humidity;BMP_temperature;BMP_pressure;BME280_temperature;BME280_humidity;BME280_pressure;Samples;Min_cycle;Max_cycle;Signal;HPM_P1;HPM_P2
2024/01/16 00:00:22;;;;;;;;;;;-3.30;99.90;;;;;;5031863;28;20377;-72
2024/01/16 00:02:48;;;;;;;;;;;-3.10;99.90;;;;;;5051764;28;19951;-72
2024/01/16 00:05:13;;;;;;;;;;;-3.20;99.90;;;;;;5053350;28;19947;-71
2024/01/16 00:07:39;;;;;;;;;;;-2.30;99.90;;;;;;5059398;28;19908;-72
2024/01/16 00:10:08;;;;;;;;;;;-3.00;99.90;;;;;;5049452;28;19920;-72
2024/01/16 00:12:33;;;;;;;;;;;-3.10;99.90;;;;;;5060551;28;19916;-72
2024/01/16 00:14:59;;;;;;;;;;;-3.00;99.90;;;;;;5056970;28;19913;-72
2024/01/16 00:17:24;;;;;;;;;;;-3.00;99.90;;;;;;5042309;28;19915;-72
2024/01/16 00:19:50;;;;;;;;;;;-2.90;99.90;;;;;;5055139;28;20007;-72
2024/01/16 00:22:15;;;;;;;;;;;-3.00;99.90;;;;;;5052389;28;19909;-72
2024/01/16 00:24:41;;;;;;;;;;;-2.90;99.90;;;;;;5044680;28;20066;-72
2024/01/16 00:27:06;;;;;;;;;;;-2.90;99.90;;;;;;5047573;28;19924;-69
2024/01/16 00:29:32;;;;;;;;;;;-2.90;99.90;;;;;;5056665;28;20025;-72
2024/01/16 00:31:57;;;;;;;;;;;-2.90;99.90;;;;;;5057005;28;20361;-72
2024/01/16 00:34:23;;;;;;;;;;;-3.00;99.90;;;;;;5060771;28;19920;-72
2024/01/16 00:36:48;;;;;;;;;;;-3.00;99.90;;;;;;5057456;28;20213;-72
2024/01/16 00:39:13;;;;;;;;;;;-3.00;99.90;;;;;;5063238;28;20364;-72
2024/01/16 00:41:39;;;;;;;;;;;-2.90;99.90;;;;;;5043148;28;19940;-72
2024/01/16 00:44:04;;;;;;;;;;;-2.90;99.90;;;;;;5060594;28;19909;-72
2024/01/16 00:46:30;;;;;;;;;;;-2.90;99.90;;;;;;5051980;28;20365;-72
2024/01/16 00:48:55;;;;;;;;;;;-2.90;99.90;;;;;;5030515;28;20067;-72
2024/01/16 00:51:21;;;;;;;;;;;-2.90;99.90;;;;;;5053183;28;19992;-72
2024/01/16 00:53:47;;;;;;;;;;;-2.90;99.90;;;;;;5060936;28;19954;-71
2024/01/16 00:56:12;;;;;;;;;;;-2.90;99.90;;;;;;5046736;28;19970;-70
2024/01/16 00:58:38;;;;;;;;;;;-2.80;99.90;;;;;;5051704;28;20160;-72
2024/01/16 01:01:04;;;;;;;;;;;-2.80;99.90;;;;;;5055281;28;19909;-72
2024/01/16 01:03:29;;;;;;;;;;;-2.80;99.90;;;;;;5051158;28;19948;-72
2024/01/16 01:05:55;;;;;;;;;;;-2.80;99.90;;;;;;5048198;28;19915;-70
2024/01/16 01:08:21;;;;;;;;;;;-2.90;99.90;;;;;;5039805;28;19927;-72
2024/01/16 01:10:47;;;;;;;;;;;-0.80;99.90;;;;;;5061010;28;19909;-72
2024/01/16 01:13:12;;;;;;;;;;;-2.60;99.90;;;;;;5052791;28;19909;-72
2024/01/16 01:15:38;;;;;;;;;;;;;;;;;;5026314;28;20380;-72
2024/01/16 01:18:04;;;;;;;;;;;-2.70;99.90;;;;;;5047880;28;19955;-71
2024/01/16 01:20:29;;;;;;;;;;;-2.70;99.90;;;;;;5043212;28;20001;-72
2024/01/16 01:22:55;;;;;;;;;;;-2.90;99.90;;;;;;5055523;28;19908;-72
2024/01/16 01:25:21;;;;;;;;;;;-2.60;99.90;;;;;;5033306;28;19917;-72
2024/01/16 01:27:47;;;;;;;;;;;-2.90;99.90;;;;;;5055947;28;20276;-72
2024/01/16 01:30:12;;;;;;;;;;;-2.80;99.90;;;;;;5040700;28;19913;-71
2024/01/16 01:32:38;;;;;;;;;;;-2.70;99.90;;;;;;5050898;28;20380;-72
2024/01/16 01:35:04;;;;;;;;;;;-2.70;99.90;;;;;;5042552;28;19995;-72
2024/01/16 01:37:30;;;;;;;;;;;-2.70;99.90;;;;;;5032511;28;19956;-72
2024/01/16 01:39:55;;;;;;;;;;;-2.80;99.90;;;;;;5059569;28;20276;-72
2024/01/16 01:42:20;;;;;;;;;;;-2.70;99.90;;;;;;5033114;28;19916;-72
2024/01/16 01:44:46;;;;;;;;;;;-3.20;99.90;;;;;;5047982;28;19991;-72
2024/01/16 01:47:12;;;;;;;;;;;-2.70;99.90;;;;;;5045731;28;19908;-72
2024/01/16 01:49:38;;;;;;;;;;;-2.90;99.90;;;;;;5064475;28;19917;-70
2024/01/16 01:52:04;;;;;;;;;;;-2.90;99.90;;;;;;5051027;28;20380;-72
2024/01/16 01:54:30;;;;;;;;;;;-2.90;99.90;;;;;;5027334;28;19912;-72
2024/01/16 01:56:56;;;;;;;;;;;-3.00;99.90;;;;;;5047781;28;20120;-70
2024/01/16 01:59:22;;;;;;;;;;;-3.10;99.90;;;;;;5049886;28;20240;-71
2024/01/16 02:01:49;;;;;;;;;;;-3.10;99.90;;;;;;5045612;28;19909;-72
2024/01/16 02:04:16;;;;;;;;;;;-3.50;99.90;;;;;;5056315;28;19913;-72
2024/01/16 02:06:44;;;;;;;;;;;-3.30;99.90;;;;;;5031852;28;19909;-72
2024/01/16 02:09:10;;;;;;;;;;;-3.20;99.90;;;;;;5046263;28;19944;-72
2024/01/16 02:11:35;;;;;;;;;;;-3.30;99.90;;;;;;5049416;28;20014;-72
2024/01/16 02:14:02;;;;;;;;;;;-3.30;99.90;;;;;;5056568;28;19915;-72
2024/01/16 02:16:35;;;;;;;;;;;-3.30;99.90;;;;;;5050272;28;19932;-72
2024/01/16 02:19:00;;;;;;;;;;;-3.50;99.90;;;;;;5054415;28;19916;-72
2024/01/16 02:21:27;;;;;;;;;;;-3.60;99.90;;;;;;5050258;28;20269;-69
2024/01/16 02:23:53;;;;;;;;;;;-3.70;99.90;;;;;;5052019;28;19920;-72
2024/01/16 02:26:19;;;;;;;;;;;-3.60;99.90;;;;;;5034662;28;19946;-72
2024/01/16 02:28:45;;;;;;;;;;;-3.60;99.90;;;;;;5055920;28;19909;-72
2024/01/16 02:31:10;;;;;;;;;;;-3.80;99.90;;;;;;5052360;28;19952;-70
2024/01/16 02:33:36;;;;;;;;;;;-3.60;99.90;;;;;;5049921;28;19916;-72
2024/01/16 02:36:01;;;;;;;;;;;-3.80;99.90;;;;;;5049405;28;19912;-72
2024/01/16 02:38:27;;;;;;;;;;;-3.70;99.90;;;;;;5056140;28;20345;-72
2024/01/16 02:40:52;;;;;;;;;;;-2.70;99.90;;;;;;5044254;28;20003;-72
2024/01/16 02:43:18;;;;;;;;;;;-3.70;99.90;;;;;;5054957;28;19955;-72
2024/01/16 02:45:43;;;;;;;;;;;-3.80;99.90;;;;;;5061434;28;19916;-71
2024/01/16 02:48:09;;;;;;;;;;;-3.80;99.90;;;;;;5048493;28;19908;-72
2024/01/16 02:50:34;;;;;;;;;;;-3.80;99.90;;;;;;5054465;28;19912;-72
2024/01/16 02:53:00;;;;;;;;;;;-3.70;99.90;;;;;;5051312;28;20003;-71
2024/01/16 02:55:25;;;;;;;;;;;-3.70;99.90;;;;;;5050060;28;19943;-70
2024/01/16 02:57:51;;;;;;;;;;;-3.70;99.90;;;;;;5049127;28;19913;-72
2024/01/16 03:00:17;;;;;;;;;;;-3.70;99.90;;;;;;5035117;28;20380;-72
2024/01/16 03:02:43;;;;;;;;;;;-3.60;99.90;;;;;;5054722;28;19965;-71
2024/01/16 03:05:09;;;;;;;;;;;-3.80;99.90;;;;;;5040656;28;20042;-72
2024/01/16 03:07:35;;;;;;;;;;;-3.70;99.90;;;;;;5051404;28;19909;-71
2024/01/16 03:10:00;;;;;;;;;;;-4.00;99.90;;;;;;5040660;28;20219;-71
2024/01/16 03:12:26;;;;;;;;;;;-4.30;99.90;;;;;;5054729;28;19930;-72
2024/01/16 03:14:53;;;;;;;;;;;-4.00;99.90;;;;;;5045481;28;19913;-72
2024/01/16 03:17:20;;;;;;;;;;;-3.80;99.90;;;;;;5045462;28;20527;-72
2024/01/16 03:19:45;;;;;;;;;;;-3.90;99.90;;;;;;5054730;28;19945;-71
2024/01/16 03:22:11;;;;;;;;;;;-3.80;99.90;;;;;;5045270;28;19909;-72
2024/01/16 03:24:36;;;;;;;;;;;-3.90;99.90;;;;;;5051000;28;19908;-72
2024/01/16 03:27:04;;;;;;;;;;;-3.90;99.90;;;;;;5047735;28;19943;-72
2024/01/16 03:29:29;;;;;;;;;;;-3.90;99.90;;;;;;5049170;28;19909;-72
2024/01/16 03:31:55;;;;;;;;;;;-3.80;99.90;;;;;;5049201;28;19931;-72
2024/01/16 03:34:20;;;;;;;;;;;-3.80;99.90;;;;;;5029327;28;19920;-70
2024/01/16 03:36:45;;;;;;;;;;;-3.80;99.90;;;;;;5049378;28;19916;-72
2024/01/16 03:39:11;;;;;;;;;;;;;;;;;;5045836;28;19921;-72
2024/01/16 03:41:37;;;;;;;;;;;-3.90;99.90;;;;;;5038317;28;19916;-71
2024/01/16 03:44:03;;;;;;;;;;;-4.10;99.90;;;;;;5033896;28;20320;-69
2024/01/16 03:46:29;;;;;;;;;;;-4.30;99.90;;;;;;5029835;28;19909;-72
2024/01/16 03:48:54;;;;;;;;;;;-4.70;99.90;;;;;;5022411;28;19909;-72
2024/01/16 03:51:20;;;;;;;;;;;-4.60;99.90;;;;;;5021516;28;19928;-72
2024/01/16 03:53:45;;;;;;;;;;;-4.50;99.90;;;;;;5027444;28;20438;-70
2024/01/16 03:56:11;;;;;;;;;;;-4.80;99.90;;;;;;5043190;28;19912;-72
2024/01/16 03:58:37;;;;;;;;;;;-5.00;99.90;;;;;;5040572;28;20376;-72
2024/01/16 04:01:03;;;;;;;;;;;-5.10;99.90;;;;;;5022762;28;19916;-72
2024/01/16 04:03:28;;;;;;;;;;;-5.10;99.90;;;;;;5039923;28;19913;-71
2024/01/16 04:05:54;;;;;;;;;;;;;;;;;;5047740;28;19928;-72
2024/01/16 04:08:19;;;;;;;;;;;-5.00;99.90;;;;;;5038754;28;19913;-72
2024/01/16 04:10:45;;;;;;;;;;;-5.40;99.90;;;;;;5042521;28;19951;-72
2024/01/16 04:13:10;;;;;;;;;;;-5.40;99.90;;;;;;5046089;28;20387;-70
2024/01/16 04:15:39;;;;;;;;;;;-5.90;99.90;;;;;;5047936;28;19917;-72
2024/01/16 04:18:04;;;;;;;;;;;-5.80;99.90;;;;;;5041338;28;19953;-72
2024/01/16 04:20:30;;;;;;;;;;;-5.50;99.90;;;;;;5046916;28;19948;-72
2024/01/16 04:22:56;;;;;;;;;;;-5.50;99.90;;;;;;5055052;28;19939;-72
2024/01/16 04:25:21;;;;;;;;;;;-5.50;99.90;;;;;;5048490;28;19919;-72
2024/01/16 04:27:47;;;;;;;;;;;-5.90;99.90;;;;;;5046252;28;19947;-72
2024/01/16 04:30:12;;;;;;;;;;;-6.00;99.90;;;;;;5022716;28;19917;-72
2024/01/16 04:32:38;;;;;;;;;;;-6.00;99.90;;;;;;5056509;28;20313;-71
2024/01/16 04:35:04;;;;;;;;;;;-6.10;99.90;;;;;;5058502;28;20278;-72
2024/01/16 04:37:29;;;;;;;;;;;-6.10;99.90;;;;;;5039208;28;19950;-72
2024/01/16 04:39:54;;;;;;;;;;;-6.10;99.90;;;;;;5062130;28;19909;-72
2024/01/16 04:42:20;;;;;;;;;;;-6.00;99.90;;;;;;5063594;28;19917;-72
2024/01/16 04:44:45;;;;;;;;;;;-6.00;99.90;;;;;;5061876;28;19908;-72
2024/01/16 04:47:11;;;;;;;;;;;-6.10;99.90;;;;;;5063631;28;19961;-72
2024/01/16 04:49:37;;;;;;;;;;;-6.10;99.90;;;;;;5059912;28;19915;-70
2024/01/16 04:52:03;;;;;;;;;;;-6.10;99.90;;;;;;5062583;28;19935;-72
2024/01/16 04:54:28;;;;;;;;;;;-6.70;99.90;;;;;;5061869;28;19952;-72
2024/01/16 04:56:54;;;;;;;;;;;-6.40;99.90;;;;;;5062666;28;19948;-72
2024/01/16 04:59:20;;;;;;;;;;;-6.40;99.90;;;;;;5063477;28;19917;-70
2024/01/16 05:01:45;;;;;;;;;;;-6.50;99.90;;;;;;5061035;28;19926;-71
2024/01/16 05:04:11;;;;;;;;;;;-6.40;99.90;;;;;;5045022;28;19916;-72
2024/01/16 05:06:36;;;;;;;;;;;-6.30;99.90;;;;;;5061289;28;20434;-70
2024/01/16 05:09:03;;;;;;;;;;;-6.60;99.90;;;;;;5052861;28;19995;-73
2024/01/16 05:11:28;;;;;;;;;;;-6.50;99.90;;;;;;5063729;28;19908;-72
2024/01/16 05:13:57;;;;;;;;;;;;;;;;;;5058821;28;19908;-70
2024/01/16 05:16:27;;;;;;;;;;;-6.90;99.90;;;;;;5058683;28;19916;-70
2024/01/16 05:18:53;;;;;;;;;;;-6.80;99.90;;;;;;5045674;28;19913;-73
2024/01/16 05:21:19;;;;;;;;;;;-6.70;99.90;;;;;;5057077;28;19913;-73
2024/01/16 05:23:45;;;;;;;;;;;-6.80;99.90;;;;;;5050771;28;20007;-74
2024/01/16 05:26:10;;;;;;;;;;;-6.80;99.90;;;;;;5038703;28;19916;-71
2024/01/16 05:28:36;;;;;;;;;;;-6.70;99.90;;;;;;5046261;28;19962;-71
2024/01/16 05:31:01;;;;;;;;;;;-6.70;99.90;;;;;;5056823;28;20372;-73
2024/01/16 05:33:27;;;;;;;;;;;-6.70;99.90;;;;;;5032246;28;19910;-71
2024/01/16 05:35:53;;;;;;;;;;;-6.80;99.90;;;;;;5048639;28;19924;-71
2024/01/16 05:38:18;;;;;;;;;;;-6.60;99.90;;;;;;5050433;28;19915;-70
2024/01/16 05:40:43;;;;;;;;;;;-6.40;99.90;;;;;;5051482;28;20000;-74
2024/01/16 05:43:09;;;;;;;;;;;-6.10;99.90;;;;;;5051468;28;20623;-70
2024/01/16 05:45:34;;;;;;;;;;;-6.40;99.90;;;;;;5050444;28;19963;-71
2024/01/16 05:48:00;;;;;;;;;;;-6.40;99.90;;;;;;5042185;28;20024;-70
2024/01/16 05:50:25;;;;;;;;;;;-6.40;99.90;;;;;;5043916;28;19912;-71
2024/01/16 05:52:51;;;;;;;;;;;-6.70;99.90;;;;;;5042187;28;19912;-71
2024/01/16 05:55:16;;;;;;;;;;;-6.70;99.90;;;;;;5048752;28;20356;-71
2024/01/16 05:57:43;;;;;;;;;;;-6.70;99.90;;;;;;5049904;28;19912;-71
2024/01/16 06:00:09;;;;;;;;;;;-6.70;99.90;;;;;;5056890;28;19936;-70
2024/01/16 06:02:34;;;;;;;;;;;-6.60;99.90;;;;;;5051274;28;19908;-71
2024/01/16 06:05:00;;;;;;;;;;;-6.50;99.90;;;;;;5043493;28;20365;-71
2024/01/16 06:07:25;;;;;;;;;;;-6.60;99.90;;;;;;5039958;28;20038;-74
2024/01/16 06:09:51;;;;;;;;;;;-6.70;99.90;;;;;;5041391;28;19913;-70
2024/01/16 06:12:16;;;;;;;;;;;-6.80;99.90;;;;;;5039332;28;20007;-71
2024/01/16 06:14:42;;;;;;;;;;;-6.60;99.90;;;;;;5049304;28;19912;-74
2024/01/16 06:17:08;;;;;;;;;;;-6.40;99.90;;;;;;5058568;28;19909;-74
2024/01/16 06:19:33;;;;;;;;;;;-6.40;99.90;;;;;;5048702;28;19908;-71
2024/01/16 06:21:59;;;;;;;;;;;-6.50;99.90;;;;;;5045852;28;19909;-71
2024/01/16 06:24:25;;;;;;;;;;;-6.60;99.90;;;;;;5048405;28;20292;-71
2024/01/16 06:26:50;;;;;;;;;;;-6.60;99.90;;;;;;5045347;28;19917;-71
2024/01/16 06:29:16;;;;;;;;;;;-6.70;99.90;;;;;;5051669;28;19912;-71
2024/01/16 06:31:41;;;;;;;;;;;-6.50;99.90;;;;;;5039738;28;19910;-72
2024/01/16 06:34:07;;;;;;;;;;;-6.50;99.90;;;;;;5019873;28;19933;-71
2024/01/16 06:36:32;;;;;;;;;;;-6.50;99.90;;;;;;5063884;28;19917;-71
2024/01/16 06:38:58;;;;;;;;;;;-6.40;99.90;;;;;;5040912;28;20326;-73
2024/01/16 06:41:23;;;;;;;;;;;-6.40;99.90;;;;;;5063447;28;19913;-71
2024/01/16 06:43:49;;;;;;;;;;;-6.40;99.90;;;;;;5056547;28;19999;-71
2024/01/16 06:46:14;;;;;;;;;;;-6.40;99.90;;;;;;5054922;28;20383;-72
2024/01/16 06:48:39;;;;;;;;;;;-6.30;99.90;;;;;;5049722;28;19995;-71
2024/01/16 06:51:05;;;;;;;;;;;-6.40;99.90;;;;;;5055827;28;19912;-71
2024/01/16 06:53:30;;;;;;;;;;;-6.10;99.90;;;;;;5056442;28;20012;-72
2024/01/16 06:55:56;;;;;;;;;;;-6.00;99.90;;;;;;5056007;28;19932;-70
2024/01/16 06:58:21;;;;;;;;;;;-6.40;99.90;;;;;;5059246;28;19912;-71
2024/01/16 07:00:47;;;;;;;;;;;-5.90;99.90;;;;;;5053770;28;20316;-74
2024/01/16 07:03:13;;;;;;;;;;;-5.80;99.90;;;;;;5060333;28;19974;-74
2024/01/16 07:05:40;;;;;;;;;;;-5.70;99.90;;;;;;5057665;28;20592;-70
2024/01/16 07:08:06;;;;;;;;;;;-5.70;99.90;;;;;;5058931;28;19908;-71
2024/01/16 07:10:32;;;;;;;;;;;-5.80;99.90;;;;;;5058035;28;19916;-71
2024/01/16 07:12:57;;;;;;;;;;;-5.70;99.90;;;;;;5052639;28;19909;-74
2024/01/16 07:15:23;;;;;;;;;;;-5.80;99.90;;;;;;5060900;28;19916;-71
2024/01/16 07:17:48;;;;;;;;;;;-5.90;99.90;;;;;;5059466;28;20430;-71
2024/01/16 07:20:14;;;;;;;;;;;-5.80;99.90;;;;;;5059312;28;19909;-74
2024/01/16 07:22:39;;;;;;;;;;;-5.90;99.90;;;;;;5055389;28;19909;-71
2024/01/16 07:25:05;;;;;;;;;;;-5.90;99.90;;;;;;5056939;28;20392;-71
2024/01/16 07:27:31;;;;;;;;;;;-5.90;99.90;;;;;;5041528;28;19917;-73
2024/01/16 07:29:56;;;;;;;;;;;-5.90;99.90;;;;;;5043473;28;19962;-74
2024/01/16 07:32:22;;;;;;;;;;;-5.90;99.90;;;;;;5049199;28;20667;-71
2024/01/16 07:34:47;;;;;;;;;;;-5.70;99.90;;;;;;5038320;28;20337;-72
2024/01/16 07:37:13;;;;;;;;;;;-5.80;99.90;;;;;;5044859;28;19921;-74
2024/01/16 07:39:39;;;;;;;;;;;-5.80;99.90;;;;;;5044314;28;20010;-71
2024/01/16 07:42:04;;;;;;;;;;;-5.80;99.90;;;;;;5033396;28;19958;-71
2024/01/16 07:44:30;;;;;;;;;;;-5.70;99.90;;;;;;5046542;28;20354;-72
2024/01/16 07:46:55;;;;;;;;;;;-5.60;99.90;;;;;;5041090;28;20003;-71
2024/01/16 07:49:20;;;;;;;;;;;-5.50;99.90;;;;;;5044809;28;19915;-73
2024/01/16 07:51:46;;;;;;;;;;;-5.40;99.90;;;;;;5045888;28;20280;-73
2024/01/16 07:54:13;;;;;;;;;;;-5.30;99.90;;;;;;5062058;28;19920;-71
2024/01/16 07:56:38;;;;;;;;;;;-5.30;99.90;;;;;;5047279;28;19963;-72
2024/01/16 07:59:04;;;;;;;;;;;-5.30;99.90;;;;;;5045055;28;19909;-72
2024/01/16 08:01:30;;;;;;;;;;;-5.10;99.90;;;;;;5052173;28;20357;-71
2024/01/16 08:03:55;;;;;;;;;;;-4.90;99.90;;;;;;5047097;28;19932;-72
2024/01/16 08:06:21;;;;;;;;;;;-4.80;99.90;;;;;;5046027;28;20687;-73
2024/01/16 08:08:47;;;;;;;;;;;-4.70;99.90;;;;;;5028035;28;19955;-73
2024/01/16 08:11:12;;;;;;;;;;;-4.70;99.90;;;;;;5045954;28;19917;-72
2024/01/16 08:13:38;;;;;;;;;;;-4.60;99.90;;;;;;5040380;28;19913;-71
2024/01/16 08:16:04;;;;;;;;;;;-4.30;99.90;;;;;;5050948;28;19917;-72
2024/01/16 08:18:31;;;;;;;;;;;-4.30;99.90;;;;;;5036891;28;19909;-75
2024/01/16 08:20:56;;;;;;;;;;;-4.30;99.90;;;;;;5041739;28;19920;-71
2024/01/16 08:23:22;;;;;;;;;;;-4.20;99.90;;;;;;5040077;28;19999;-72
2024/01/16 08:25:48;;;;;;;;;;;-4.10;99.90;;;;;;5049641;28;19974;-75
2024/01/16 08:28:14;;;;;;;;;;;-4.00;99.90;;;;;;5040190;28;19993;-72
2024/01/16 08:30:39;;;;;;;;;;;-4.10;99.90;;;;;;5058828;28;20361;-71
2024/01/16 08:33:05;;;;;;;;;;;-4.10;99.90;;;;;;5061291;28;20003;-72
2024/01/16 08:35:30;;;;;;;;;;;-3.90;99.90;;;;;;5043740;28;20304;-75
2024/01/16 08:37:56;;;;;;;;;;;-3.80;99.90;;;;;;5037763;28;19943;-72
2024/01/16 08:40:21;;;;;;;;;;;;;;;;;;5050560;28;19966;-72
2024/01/16 08:42:51;;;;;;;;;;;-3.70;99.90;;;;;;5049181;28;19927;-72
2024/01/16 08:45:17;;;;;;;;;;;;;;;;;;5049195;28;19963;-71
2024/01/16 08:47:42;;;;;;;;;;;-3.30;99.90;;;;;;5051275;28;20324;-71
2024/01/16 08:50:09;;;;;;;;;;;-3.20;99.90;;;;;;5043402;28;20007;-72
2024/01/16 08:52:35;;;;;;;;;;;-3.30;99.90;;;;;;5048785;28;20308;-72
2024/01/16 08:55:00;;;;;;;;;;;-3.40;99.90;;;;;;5053551;28;19920;-73
2024/01/16 08:57:26;;;;;;;;;;;-3.30;99.90;;;;;;5051951;28;20266;-72
2024/01/16 08:59:52;;;;;;;;;;;-3.20;99.90;;;;;;5046234;28;19916;-75
2024/01/16 09:02:18;;;;;;;;;;;-2.50;99.90;;;;;;5051499;28;19908;-75
2024/01/16 09:04:43;;;;;;;;;;;-2.00;99.90;;;;;;5049691;28;20059;-72
2024/01/16 09:07:09;;;;;;;;;;;-1.00;99.90;;;;;;5049557;28;19909;-72
2024/01/16 09:09:35;;;;;;;;;;;0.10;99.90;;;;;;5050030;28;19955;-72
2024/01/16 09:12:00;;;;;;;;;;;1.30;99.90;;;;;;5059497;28;20042;-73
2024/01/16 09:14:26;;;;;;;;;;;1.70;99.90;;;;;;5049771;28;20325;-73
2024/01/16 09:16:53;;;;;;;;;;;1.70;99.90;;;;;;5057783;28;19912;-73
2024/01/16 09:19:18;;;;;;;;;;;1.00;99.90;;;;;;5047436;28;19916;-72
2024/01/16 09:21:44;;;;;;;;;;;0.70;99.90;;;;;;5057265;28;19912;-73
2024/01/16 09:24:09;;;;;;;;;;;0.10;99.90;;;;;;5043872;28;20010;-76
2024/01/16 09:26:36;;;;;;;;;;;0.00;99.90;;;;;;5149952;22;19924;-71
2024/01/16 09:29:01;;;;;;;;;;;0.40;99.90;;;;;;5059133;28;20369;-73
2024/01/16 09:31:27;;;;;;;;;;;0.50;99.90;;;;;;5027684;28;20118;-72
2024/01/16 09:33:52;;;;;;;;;;;0.50;99.90;;;;;;5040101;28;19912;-72
2024/01/16 09:36:18;;;;;;;;;;;0.20;99.90;;;;;;5043307;28;19921;-71
2024/01/16 09:38:43;;;;;;;;;;;-0.10;99.90;;;;;;5047852;28;19913;-71
2024/01/16 09:41:09;;;;;;;;;;;0.10;99.90;;;;;;5042701;28;20368;-72
2024/01/16 09:43:35;;;;;;;;;;;0.40;99.90;;;;;;5029185;28;19913;-72
2024/01/16 09:46:01;;;;;;;;;;;0.60;99.90;;;;;;5016523;28;19979;-72
2024/01/16 09:48:30;;;;;;;;;;;0.10;99.90;;;;;;5021361;28;19936;-73
2024/01/16 09:50:55;;;;;;;;;;;0.80;99.90;;;;;;5024280;28;20003;-72
2024/01/16 09:53:21;;;;;;;;;;;0.80;99.90;;;;;;5017571;28;20048;-75
2024/01/16 09:55:48;;;;;;;;;;;1.30;99.90;;;;;;5037135;28;19921;-72
2024/01/16 09:58:14;;;;;;;;;;;2.00;99.90;;;;;;5019824;28;19913;-73
2024/01/16 10:00:41;;;;;;;;;;;2.60;99.90;;;;;;5045491;28;20434;-75
2024/01/16 10:03:07;;;;;;;;;;;2.40;99.90;;;;;;5031864;28;20368;-72
2024/01/16 10:05:33;;;;;;;;;;;1.50;99.90;;;;;;5022678;28;20289;-72
2024/01/16 10:07:59;;;;;;;;;;;1.00;99.90;;;;;;5032244;28;19909;-72
2024/01/16 10:10:28;;;;;;;;;;;1.20;99.90;;;;;;5033243;28;19986;-73
2024/01/16 10:12:55;;;;;;;;;;;2.30;99.90;;;;;;5039452;28;20328;-73
2024/01/16 10:15:21;;;;;;;;;;;2.70;99.90;;;;;;5035121;28;19991;-75
2024/01/16 10:17:47;;;;;;;;;;;2.80;99.90;;;;;;5040212;28;20015;-73
2024/01/16 10:20:17;;;;;;;;;;;2.90;99.90;;;;;;5030981;28;20012;-76
2024/01/16 10:22:52;;;;;;;;;;;2.60;99.90;;;;;;5034131;28;19913;-74
2024/01/16 10:25:19;;;;;;;;;;;2.90;99.90;;;;;;5026316;28;20425;-73
2024/01/16 10:27:45;;;;;;;;;;;3.50;99.90;;;;;;5032116;28;19913;-76
2024/01/16 10:30:11;;;;;;;;;;;4.10;99.90;;;;;;5018754;28;19909;-73
2024/01/16 10:32:38;;;;;;;;;;;4.10;99.90;;;;;;5022841;28;19913;-76
2024/01/16 10:35:04;;;;;;;;;;;4.10;99.90;;;;;;5005500;28;20278;-73
2024/01/16 10:37:41;;;;;;;;;;;3.80;99.90;;;;;;5034508;28;19913;-75
2024/01/16 10:40:07;;;;;;;;;;;4.10;99.90;;;;;;5019543;28;19916;-73
2024/01/16 10:42:32;;;;;;;;;;;4.70;99.90;;;;;;5020446;28;19913;-73
2024/01/16 10:44:58;;;;;;;;;;;4.10;99.90;;;;;;5018179;28;19947;-76
2024/01/16 10:47:23;;;;;;;;;;;4.00;99.90;;;;;;5037361;28;20005;-73
2024/01/16 10:49:49;;;;;;;;;;;4.70;99.90;;;;;;5020381;28;19919;-74
2024/01/16 10:52:14;;;;;;;;;;;4.60;99.90;;;;;;5025130;28;19917;-75
2024/01/16 10:54:41;;;;;;;;;;;4.20;99.90;;;;;;5028558;28;19932;-73
2024/01/16 10:57:07;;;;;;;;;;;;;;;;;;5031331;28;19913;-73
2024/01/16 10:59:39;;;;;;;;;;;5.90;99.90;;;;;;5032484;28;20330;-73
2024/01/16 11:02:10;;;;;;;;;;;6.40;99.90;;;;;;5005160;28;19913;-76
2024/01/16 11:04:37;;;;;;;;;;;4.50;99.90;;;;;;5036517;28;19955;-75
2024/01/16 11:07:04;;;;;;;;;;;3.70;99.90;;;;;;5031837;28;19909;-73
2024/01/16 11:09:30;;;;;;;;;;;3.80;99.90;;;;;;5036237;28;19951;-76
2024/01/16 11:11:56;;;;;;;;;;;4.00;99.90;;;;;;5037822;28;19983;-75
2024/01/16 11:14:22;;;;;;;;;;;3.60;99.90;;;;;;5043375;28;19909;-75
2024/01/16 11:16:49;;;;;;;;;;;3.00;99.90;;;;;;5038186;28;20308;-76
2024/01/16 11:19:16;;;;;;;;;;;3.20;99.90;;;;;;5022244;28;19917;-75
2024/01/16 11:21:42;;;;;;;;;;;3.00;99.90;;;;;;5019027;28;20246;-73
2024/01/16 11:24:07;;;;;;;;;;;2.50;99.90;;;;;;5029575;28;19909;-73
2024/01/16 11:26:36;;;;;;;;;;;1.80;99.90;;;;;;5032648;28;19924;-73
2024/01/16 11:29:20;;;;;;;;;;;1.00;99.90;;;;;;5026942;28;20385;-73
2024/01/16 11:31:45;;;;;;;;;;;1.00;99.90;;;;;;5041991;28;20004;-75
2024/01/16 11:34:11;;;;;;;;;;;0.70;99.90;;;;;;5046609;28;20390;-76
2024/01/16 11:36:55;;;;;;;;;;;0.40;99.90;;;;;;5038643;28;20048;-73
2024/01/16 11:39:22;;;;;;;;;;;0.00;99.90;;;;;;5037306;28;20392;-72
2024/01/16 11:41:49;;;;;;;;;;;-0.20;99.90;;;;;;5045127;28;20429;-74
2024/01/16 11:44:34;;;;;;;;;;;-0.30;99.90;;;;;;5046310;28;19920;-74
2024/01/16 11:47:01;;;;;;;;;;;-0.40;99.90;;;;;;5042551;28;19917;-74
2024/01/16 11:49:27;;;;;;;;;;;-0.60;99.90;;;;;;5036513;28;19909;-73
2024/01/16 11:51:52;;;;;;;;;;;-0.60;99.90;;;;;;5034482;28;20008;-73
2024/01/16 11:54:18;;;;;;;;;;;;;;;;;;5044325;28;19916;-73
2024/01/16 11:56:56;;;;;;;;;;;-0.70;99.90;;;;;;5018811;28;20396;-73
2024/01/16 11:59:22;;;;;;;;;;;-0.60;99.90;;;;;;5031880;28;19913;-73
2024/01/16 12:01:50;;;;;;;;;;;-0.50;99.90;;;;;;5046425;28;19913;-73
2024/01/16 12:04:18;;;;;;;;;;;-0.50;99.90;;;;;;5039409;28;19924;-73
2024/01/16 12:06:43;;;;;;;;;;;-0.50;99.90;;;;;;5035646;28;20002;-74
2024/01/16 12:09:12;;;;;;;;;;;-0.50;99.90;;;;;;5014614;28;19968;-73
2024/01/16 12:11:38;;;;;;;;;;;-1.00;99.90;;;;;;5039508;28;20349;-73
2024/01/16 12:14:04;;;;;;;;;;;-0.50;99.90;;;;;;5038195;28;19915;-75
2024/01/16 12:16:29;;;;;;;;;;;-0.80;99.90;;;;;;5031481;28;20336;-73
2024/01/16 12:19:08;;;;;;;;;;;-2.30;99.90;;;;;;5020969;28;20284;-73
2024/01/16 12:21:34;;;;;;;;;;;-0.60;99.90;;;;;;5034465;28;20002;-73
2024/01/16 12:24:00;;;;;;;;;;;-0.70;99.90;;;;;;5026968;28;19971;-72
2024/01/16 12:26:25;;;;;;;;;;;-1.20;99.90;;;;;;5035579;28;20453;-72
2024/01/16 12:28:52;;;;;;;;;;;-0.70;99.90;;;;;;5032731;28;20348;-75
2024/01/16 12:31:18;;;;;;;;;;;-0.70;99.90;;;;;;5025469;28;20354;-73
2024/01/16 12:33:43;;;;;;;;;;;-0.80;99.90;;;;;;5034412;28;19917;-73
2024/01/16 12:36:10;;;;;;;;;;;-0.90;99.90;;;;;;5039743;28;19913;-75
2024/01/16 12:38:36;;;;;;;;;;;-0.50;99.90;;;;;;5037052;28;20000;-72
2024/01/16 12:41:01;;;;;;;;;;;-0.60;99.90;;;;;;5036424;28;19991;-75
2024/01/16 12:43:27;;;;;;;;;;;-0.60;99.90;;;;;;5035591;28;19944;-75
2024/01/16 12:45:56;;;;;;;;;;;-0.50;99.90;;;;;;5041590;28;19963;-72
2024/01/16 12:48:23;;;;;;;;;;;-0.60;99.90;;;;;;5033875;28;19913;-76
2024/01/16 12:50:48;;;;;;;;;;;-0.60;99.90;;;;;;5042229;28;19909;-73
2024/01/16 12:53:16;;;;;;;;;;;-0.50;99.90;;;;;;5039973;28;19913;-75
2024/01/16 12:55:42;;;;;;;;;;;-0.70;99.90;;;;;;5040734;28;19917;-72
2024/01/16 12:58:20;;;;;;;;;;;0.50;99.90;;;;;;5017894;28;19913;-72
2024/01/16 13:00:47;;;;;;;;;;;-0.90;99.90;;;;;;5041286;28;19912;-72
2024/01/16 13:03:17;;;;;;;;;;;-0.80;99.90;;;;;;5029530;28;19918;-72
2024/01/16 13:05:42;;;;;;;;;;;;;;;;;;5040724;28;19939;-73
2024/01/16 13:08:08;;;;;;;;;;;-0.80;99.90;;;;;;5017782;28;19940;-73
2024/01/16 13:10:35;;;;;;;;;;;-0.70;99.90;;;;;;5031926;28;19910;-72
2024/01/16 13:13:13;;;;;;;;;;;-0.60;99.90;;;;;;5037594;28;19909;-73
2024/01/16 13:15:39;;;;;;;;;;;-0.40;99.90;;;;;;5025414;28;19913;-72
2024/01/16 13:18:05;;;;;;;;;;;-0.70;99.90;;;;;;5034298;28;19955;-72
2024/01/16 13:20:31;;;;;;;;;;;-0.60;99.90;;;;;;5040513;28;19960;-73
2024/01/16 13:22:56;;;;;;;;;;;-0.60;99.90;;;;;;5044291;28;19913;-73
2024/01/16 13:25:22;;;;;;;;;;;-0.70;99.90;;;;;;5037227;28;20435;-76
2024/01/16 13:27:47;;;;;;;;;;;-0.80;99.90;;;;;;5033210;28;19924;-72
2024/01/16 13:30:14;;;;;;;;;;;-0.80;99.90;;;;;;5038111;28;19916;-73
2024/01/16 13:32:40;;;;;;;;;;;-0.70;99.90;;;;;;5039408;28;19966;-72
2024/01/16 13:35:08;;;;;;;;;;;-0.80;99.90;;;;;;5022147;28;20388;-72
2024/01/16 13:37:36;;;;;;;;;;;-0.80;99.90;;;;;;5039952;28;19915;-72
2024/01/16 13:40:03;;;;;;;;;;;-0.50;99.90;;;;;;5032526;28;20308;-72
2024/01/16 13:42:29;;;;;;;;;;;-0.50;99.90;;;;;;5047840;28;20054;-76
2024/01/16 13:44:55;;;;;;;;;;;-0.70;99.90;;;;;;5039694;28;19920;-74
2024/01/16 13:47:20;;;;;;;;;;;-0.70;99.90;;;;;;5037306;28;20313;-72
2024/01/16 13:49:46;;;;;;;;;;;-0.80;99.90;;;;;;5041082;28;20051;-74
2024/01/16 13:52:12;;;;;;;;;;;-0.60;99.90;;;;;;5039338;28;20393;-73
2024/01/16 13:54:39;;;;;;;;;;;-0.90;99.90;;;;;;5037271;28;19913;-72
2024/01/16 13:57:04;;;;;;;;;;;-1.10;99.90;;;;;;5038835;28;19932;-74
2024/01/16 13:59:30;;;;;;;;;;;-1.00;99.90;;;;;;5048139;28;19908;-75
2024/01/16 14:01:55;;;;;;;;;;;-1.10;99.90;;;;;;5026783;28;19920;-72
2024/01/16 14:04:21;;;;;;;;;;;-1.10;99.90;;;;;;5043663;28;19997;-73
2024/01/16 14:06:46;;;;;;;;;;;-1.20;99.90;;;;;;5039855;28;19913;-72
2024/01/16 14:09:13;;;;;;;;;;;-1.30;99.90;;;;;;5041660;28;20352;-72
2024/01/16 14:11:39;;;;;;;;;;;-0.60;99.90;;;;;;5029517;28;20304;-74
2024/01/16 14:14:05;;;;;;;;;;;-0.80;99.90;;;;;;5046194;28;19920;-72
2024/01/16 14:16:30;;;;;;;;;;;-0.90;99.90;;;;;;5041761;28;19917;-72